sensor_id;sensor_type;location;lat;lon;timestamp;P1;durP1;ratioP1;P2;durP2;ratioP2
72422;SDS011;60413;55.658;37.498;2022-09-21T00:00:00;17.25;;;11.43;;
72422;SDS011;60413;55.658;37.498;2022-09-21T00:02:29;15.85;;;7.63;;
72422;SDS011;60413;55.658;37.498;2022-09-21T00:04:59;10.45;;;5.82;;
72422;SDS011;60413;55.658;37.498;2022-09-21T00:07:25;13.18;;;5.80;;
72422;SDS011;60413;55.658;37.498;2022-09-21T00:09:53;11.30;;;6.28;;
72422;SDS011;60413;55.658;37.498;2022-09-21T00:12:21;11.90;;;6.10;;
72422;SDS011;60413;55.658;37.498;2022-09-21T00:14:48;10.38;;;5.80;;
72422;SDS011;60413;55.658;37.498;2022-09-21T00:17:14;9.63;;;5.57;;
72422;SDS011;60413;55.658;37.498;2022-09-21T00:19:48;10.05;;;5.68;;
72422;SDS011;60413;55.658;37.498;2022-09-21T00:22:17;9.82;;;5.35;;
72422;SDS011;60413;55.658;37.498;2022-09-21T00:24:45;12.07;;;5.53;;
72422;SDS011;60413;55.658;37.498;2022-09-21T00:27:11;9.27;;;5.30;;
72422;SDS011;60413;55.658;37.498;2022-09-21T00:29:41;9.52;;;5.18;;
72422;SDS011;60413;55.658;37.498;2022-09-21T00:32:07;9.95;;;5.93;;
72422;SDS011;60413;55.658;37.498;2022-09-21T00:34:33;9.18;;;5.43;;
72422;SDS011;60413;55.658;37.498;2022-09-21T00:36:59;11.13;;;5.60;;
72422;SDS011;60413;55.658;37.498;2022-09-21T00:39:25;9.18;;;5.90;;
72422;SDS011;60413;55.658;37.498;2022-09-21T00:44:49;11.30;;;5.60;;
72422;SDS011;60413;55.658;37.498;2022-09-21T00:47:16;11.30;;;5.53;;
72422;SDS011;60413;55.658;37.498;2022-09-21T00:49:47;10.43;;;5.68;;
72422;SDS011;60413;55.658;37.498;2022-09-21T00:52:18;11.20;;;5.43;;
72422;SDS011;60413;55.658;37.498;2022-09-21T00:54:51;11.45;;;5.70;;
72422;SDS011;60413;55.658;37.498;2022-09-21T00:57:20;9.82;;;5.45;;
72422;SDS011;60413;55.658;37.498;2022-09-21T00:59:53;10.73;;;6.15;;
72422;SDS011;60413;55.658;37.498;2022-09-21T01:02:22;11.45;;;5.13;;
72422;SDS011;60413;55.658;37.498;2022-09-21T01:04:51;10.30;;;6.00;;
72422;SDS011;60413;55.658;37.498;2022-09-21T01:07:23;9.00;;;5.40;;
72422;SDS011;60413;55.658;37.498;2022-09-21T01:09:57;12.15;;;5.18;;
72422;SDS011;60413;55.658;37.498;2022-09-21T01:21:06;8.65;;;4.95;;
72422;SDS011;60413;55.658;37.498;2022-09-21T01:29:41;12.70;;;5.15;;
72422;SDS011;60413;55.658;37.498;2022-09-21T01:32:32;11.95;;;5.45;;
72422;SDS011;60413;55.658;37.498;2022-09-21T01:37:50;8.68;;;4.72;;
72422;SDS011;60413;55.658;37.498;2022-09-21T01:40:24;8.18;;;4.50;;
72422;SDS011;60413;55.658;37.498;2022-09-21T01:42:56;8.18;;;4.20;;
72422;SDS011;60413;55.658;37.498;2022-09-21T01:45:48;7.82;;;4.07;;
72422;SDS011;60413;55.658;37.498;2022-09-21T01:50:49;11.30;;;4.10;;
72422;SDS011;60413;55.658;37.498;2022-09-21T01:53:29;9.07;;;3.63;;
72422;SDS011;60413;55.658;37.498;2022-09-21T01:56:05;5.97;;;3.83;;
72422;SDS011;60413;55.658;37.498;2022-09-21T01:58:38;6.35;;;3.97;;
72422;SDS011;60413;55.658;37.498;2022-09-21T02:01:17;10.57;;;3.88;;
72422;SDS011;60413;55.658;37.498;2022-09-21T02:03:50;7.30;;;3.70;;
72422;SDS011;60413;55.658;37.498;2022-09-21T02:06:19;8.60;;;4.15;;
72422;SDS011;60413;55.658;37.498;2022-09-21T02:08:48;6.85;;;4.07;;
72422;SDS011;60413;55.658;37.498;2022-09-21T02:11:14;10.10;;;4.88;;
72422;SDS011;60413;55.658;37.498;2022-09-21T02:13:45;7.88;;;4.40;;
72422;SDS011;60413;55.658;37.498;2022-09-21T02:24:32;9.20;;;4.18;;
72422;SDS011;60413;55.658;37.498;2022-09-21T02:27:05;8.38;;;4.38;;
72422;SDS011;60413;55.658;37.498;2022-09-21T02:30:02;11.23;;;4.45;;
72422;SDS011;60413;55.658;37.498;2022-09-21T02:35:17;10.73;;;4.70;;
72422;SDS011;60413;55.658;37.498;2022-09-21T02:37:59;8.10;;;4.82;;
72422;SDS011;60413;55.658;37.498;2022-09-21T02:40:52;8.88;;;5.00;;
72422;SDS011;60413;55.658;37.498;2022-09-21T02:43:32;8.77;;;5.40;;
72422;SDS011;60413;55.658;37.498;2022-09-21T02:49:02;11.52;;;6.28;;
72422;SDS011;60413;55.658;37.498;2022-09-21T02:51:38;11.95;;;6.68;;
72422;SDS011;60413;55.658;37.498;2022-09-21T02:54:10;15.20;;;6.18;;
72422;SDS011;60413;55.658;37.498;2022-09-21T02:56:42;15.23;;;6.20;;
72422;SDS011;60413;55.658;37.498;2022-09-21T03:02:20;11.77;;;7.00;;
72422;SDS011;60413;55.658;37.498;2022-09-21T03:05:29;10.82;;;5.65;;
72422;SDS011;60413;55.658;37.498;2022-09-21T03:07:59;9.32;;;5.78;;
72422;SDS011;60413;55.658;37.498;2022-09-21T03:11:30;10.95;;;5.75;;
72422;SDS011;60413;55.658;37.498;2022-09-21T03:13:56;12.20;;;5.43;;
72422;SDS011;60413;55.658;37.498;2022-09-21T03:16:23;8.40;;;5.60;;
72422;SDS011;60413;55.658;37.498;2022-09-21T03:18:50;10.50;;;5.53;;
72422;SDS011;60413;55.658;37.498;2022-09-21T03:21:17;10.65;;;5.35;;
72422;SDS011;60413;55.658;37.498;2022-09-21T03:23:44;9.65;;;5.97;;
72422;SDS011;60413;55.658;37.498;2022-09-21T03:26:11;9.40;;;5.00;;
72422;SDS011;60413;55.658;37.498;2022-09-21T03:29:12;12.48;;;5.53;;
72422;SDS011;60413;55.658;37.498;2022-09-21T03:31:45;13.05;;;5.97;;
72422;SDS011;60413;55.658;37.498;2022-09-21T03:34:19;13.27;;;6.05;;
72422;SDS011;60413;55.658;37.498;2022-09-21T03:36:51;15.70;;;6.70;;
72422;SDS011;60413;55.658;37.498;2022-09-21T03:39:22;11.50;;;6.00;;
72422;SDS011;60413;55.658;37.498;2022-09-21T03:41:49;12.25;;;6.32;;
72422;SDS011;60413;55.658;37.498;2022-09-21T03:44:18;11.18;;;6.05;;
72422;SDS011;60413;55.658;37.498;2022-09-21T03:46:47;12.80;;;6.80;;
72422;SDS011;60413;55.658;37.498;2022-09-21T03:49:18;15.35;;;6.65;;
72422;SDS011;60413;55.658;37.498;2022-09-21T03:51:45;15.85;;;6.35;;
72422;SDS011;60413;55.658;37.498;2022-09-21T03:54:26;12.77;;;6.72;;
72422;SDS011;60413;55.658;37.498;2022-09-21T03:56:59;13.18;;;6.72;;
72422;SDS011;60413;55.658;37.498;2022-09-21T03:59:34;12.38;;;6.22;;
72422;SDS011;60413;55.658;37.498;2022-09-21T04:02:03;8.95;;;5.50;;
72422;SDS011;60413;55.658;37.498;2022-09-21T04:04:30;16.60;;;6.07;;
72422;SDS011;60413;55.658;37.498;2022-09-21T04:06:59;13.45;;;6.25;;
72422;SDS011;60413;55.658;37.498;2022-09-21T04:09:27;12.40;;;5.47;;
72422;SDS011;60413;55.658;37.498;2022-09-21T04:12:03;12.00;;;5.68;;
72422;SDS011;60413;55.658;37.498;2022-09-21T04:15:26;12.90;;;5.55;;
72422;SDS011;60413;55.658;37.498;2022-09-21T04:17:56;11.60;;;6.10;;
72422;SDS011;60413;55.658;37.498;2022-09-21T04:20:25;13.07;;;5.88;;
72422;SDS011;60413;55.658;37.498;2022-09-21T04:22:52;13.23;;;6.28;;
72422;SDS011;60413;55.658;37.498;2022-09-21T04:25:20;15.07;;;7.15;;
72422;SDS011;60413;55.658;37.498;2022-09-21T04:27:52;11.77;;;6.47;;
72422;SDS011;60413;55.658;37.498;2022-09-21T04:30:57;14.38;;;7.25;;
72422;SDS011;60413;55.658;37.498;2022-09-21T04:33:24;12.95;;;6.60;;
72422;SDS011;60413;55.658;37.498;2022-09-21T04:35:56;18.00;;;7.82;;
72422;SDS011;60413;55.658;37.498;2022-09-21T04:38:33;22.92;;;8.90;;
72422;SDS011;60413;55.658;37.498;2022-09-21T04:41:19;18.10;;;8.32;;
72422;SDS011;60413;55.658;37.498;2022-09-21T04:46:51;15.88;;;7.25;;
72422;SDS011;60413;55.658;37.498;2022-09-21T04:49:21;15.43;;;7.53;;
72422;SDS011;60413;55.658;37.498;2022-09-21T04:51:52;16.35;;;7.80;;
72422;SDS011;60413;55.658;37.498;2022-09-21T04:54:19;18.95;;;7.75;;
72422;SDS011;60413;55.658;37.498;2022-09-21T04:56:56;18.80;;;7.70;;
72422;SDS011;60413;55.658;37.498;2022-09-21T04:59:34;15.95;;;6.72;;
72422;SDS011;60413;55.658;37.498;2022-09-21T05:02:19;15.98;;;7.22;;
72422;SDS011;60413;55.658;37.498;2022-09-21T05:05:07;14.32;;;6.40;;
72422;SDS011;60413;55.658;37.498;2022-09-21T05:13:22;10.85;;;5.30;;
72422;SDS011;60413;55.658;37.498;2022-09-21T05:15:53;15.98;;;5.90;;
72422;SDS011;60413;55.658;37.498;2022-09-21T05:21:08;11.00;;;5.68;;
72422;SDS011;60413;55.658;37.498;2022-09-21T05:23:39;15.23;;;6.25;;
72422;SDS011;60413;55.658;37.498;2022-09-21T05:26:14;12.65;;;5.75;;
72422;SDS011;60413;55.658;37.498;2022-09-21T05:28:59;12.25;;;5.97;;
72422;SDS011;60413;55.658;37.498;2022-09-21T05:31:47;12.35;;;4.30;;
72422;SDS011;60413;55.658;37.498;2022-09-21T05:34:54;12.52;;;7.20;;
72422;SDS011;60413;55.658;37.498;2022-09-21T05:37:54;15.63;;;6.03;;
72422;SDS011;60413;55.658;37.498;2022-09-21T05:40:36;11.90;;;4.68;;
72422;SDS011;60413;55.658;37.498;2022-09-21T05:43:13;10.13;;;5.47;;
72422;SDS011;60413;55.658;37.498;2022-09-21T05:46:09;12.60;;;6.32;;
72422;SDS011;60413;55.658;37.498;2022-09-21T05:49:00;12.10;;;4.75;;
72422;SDS011;60413;55.658;37.498;2022-09-21T05:51:37;12.60;;;5.90;;
72422;SDS011;60413;55.658;37.498;2022-09-21T05:54:44;12.55;;;5.65;;
72422;SDS011;60413;55.658;37.498;2022-09-21T05:57:30;10.48;;;5.90;;
72422;SDS011;60413;55.658;37.498;2022-09-21T06:00:20;19.00;;;6.32;;
72422;SDS011;60413;55.658;37.498;2022-09-21T06:03:19;12.50;;;6.28;;
72422;SDS011;60413;55.658;37.498;2022-09-21T06:05:59;12.50;;;5.72;;
72422;SDS011;60413;55.658;37.498;2022-09-21T06:08:56;16.27;;;6.68;;
72422;SDS011;60413;55.658;37.498;2022-09-21T06:11:30;15.93;;;6.95;;
72422;SDS011;60413;55.658;37.498;2022-09-21T06:13:59;11.75;;;5.70;;
72422;SDS011;60413;55.658;37.498;2022-09-21T06:16:39;15.23;;;6.47;;
72422;SDS011;60413;55.658;37.498;2022-09-21T06:19:21;17.35;;;7.05;;
72422;SDS011;60413;55.658;37.498;2022-09-21T06:21:55;17.50;;;6.63;;
72422;SDS011;60413;55.658;37.498;2022-09-21T06:24:27;13.32;;;6.47;;
72422;SDS011;60413;55.658;37.498;2022-09-21T06:27:11;14.77;;;6.65;;
72422;SDS011;60413;55.658;37.498;2022-09-21T06:29:46;15.25;;;6.18;;
72422;SDS011;60413;55.658;37.498;2022-09-21T06:32:33;14.95;;;6.05;;
72422;SDS011;60413;55.658;37.498;2022-09-21T06:35:06;17.98;;;5.50;;
72422;SDS011;60413;55.658;37.498;2022-09-21T06:37:33;21.52;;;5.97;;
72422;SDS011;60413;55.658;37.498;2022-09-21T06:40:07;11.07;;;6.47;;
72422;SDS011;60413;55.658;37.498;2022-09-21T06:42:43;22.80;;;7.32;;
72422;SDS011;60413;55.658;37.498;2022-09-21T06:45:17;18.42;;;5.97;;
72422;SDS011;60413;55.658;37.498;2022-09-21T06:47:51;12.10;;;5.10;;
72422;SDS011;60413;55.658;37.498;2022-09-21T06:50:39;11.25;;;5.65;;
72422;SDS011;60413;55.658;37.498;2022-09-21T06:53:18;14.02;;;5.55;;
72422;SDS011;60413;55.658;37.498;2022-09-21T06:55:47;9.60;;;5.50;;
72422;SDS011;60413;55.658;37.498;2022-09-21T06:58:17;9.60;;;4.68;;
72422;SDS011;60413;55.658;37.498;2022-09-21T07:07:05;8.55;;;4.82;;
72422;SDS011;60413;55.658;37.498;2022-09-21T07:10:21;16.23;;;5.78;;
72422;SDS011;60413;55.658;37.498;2022-09-21T07:13:07;10.70;;;5.45;;
72422;SDS011;60413;55.658;37.498;2022-09-21T07:15:49;13.95;;;6.07;;
72422;SDS011;60413;55.658;37.498;2022-09-21T07:18:22;16.25;;;6.68;;
72422;SDS011;60413;55.658;37.498;2022-09-21T07:20:51;10.80;;;5.50;;
72422;SDS011;60413;55.658;37.498;2022-09-21T07:23:18;17.90;;;7.25;;
72422;SDS011;60413;55.658;37.498;2022-09-21T07:25:49;14.80;;;6.97;;
72422;SDS011;60413;55.658;37.498;2022-09-21T07:28:19;13.05;;;6.53;;
72422;SDS011;60413;55.658;37.498;2022-09-21T07:30:53;15.68;;;5.45;;
72422;SDS011;60413;55.658;37.498;2022-09-21T07:33:31;15.18;;;6.60;;
72422;SDS011;60413;55.658;37.498;2022-09-21T07:36:00;19.80;;;7.15;;
72422;SDS011;60413;55.658;37.498;2022-09-21T07:38:48;12.57;;;5.95;;
72422;SDS011;60413;55.658;37.498;2022-09-21T07:41:34;17.23;;;7.60;;
72422;SDS011;60413;55.658;37.498;2022-09-21T07:44:01;15.70;;;7.57;;
72422;SDS011;60413;55.658;37.498;2022-09-21T07:46:39;13.88;;;7.28;;
72422;SDS011;60413;55.658;37.498;2022-09-21T07:49:24;11.13;;;5.80;;
72422;SDS011;60413;55.658;37.498;2022-09-21T07:52:02;13.18;;;5.82;;
72422;SDS011;60413;55.658;37.498;2022-09-21T07:54:42;11.20;;;5.25;;
72422;SDS011;60413;55.658;37.498;2022-09-21T07:57:20;14.35;;;6.55;;
72422;SDS011;60413;55.658;37.498;2022-09-21T08:00:10;16.00;;;6.38;;
72422;SDS011;60413;55.658;37.498;2022-09-21T08:02:44;11.23;;;6.25;;
72422;SDS011;60413;55.658;37.498;2022-09-21T08:05:19;13.50;;;6.55;;
72422;SDS011;60413;55.658;37.498;2022-09-21T08:07:45;18.58;;;6.43;;
72422;SDS011;60413;55.658;37.498;2022-09-21T08:10:25;11.82;;;6.90;;
72422;SDS011;60413;55.658;37.498;2022-09-21T08:16:02;13.32;;;6.05;;
72422;SDS011;60413;55.658;37.498;2022-09-21T08:18:35;9.95;;;5.75;;
72422;SDS011;60413;55.658;37.498;2022-09-21T08:21:09;16.55;;;6.82;;
72422;SDS011;60413;55.658;37.498;2022-09-21T08:23:41;17.98;;;7.60;;
72422;SDS011;60413;55.658;37.498;2022-09-21T08:26:09;12.32;;;5.38;;
72422;SDS011;60413;55.658;37.498;2022-09-21T08:31:54;12.98;;;7.50;;
72422;SDS011;60413;55.658;37.498;2022-09-21T08:34:24;16.10;;;6.10;;
72422;SDS011;60413;55.658;37.498;2022-09-21T08:36:50;16.35;;;6.95;;
72422;SDS011;60413;55.658;37.498;2022-09-21T08:39:23;16.67;;;8.50;;
72422;SDS011;60413;55.658;37.498;2022-09-21T08:44:41;17.08;;;8.40;;
72422;SDS011;60413;55.658;37.498;2022-09-21T08:50:13;17.65;;;8.05;;
72422;SDS011;60413;55.658;37.498;2022-09-21T08:53:30;16.25;;;7.40;;
72422;SDS011;60413;55.658;37.498;2022-09-21T08:56:11;16.63;;;8.02;;
72422;SDS011;60413;55.658;37.498;2022-09-21T08:58:58;19.77;;;8.65;;
72422;SDS011;60413;55.658;37.498;2022-09-21T09:04:29;14.13;;;7.13;;
72422;SDS011;60413;55.658;37.498;2022-09-21T09:19:21;9.00;;;4.45;;
72422;SDS011;60413;55.658;37.498;2022-09-21T09:22:02;10.23;;;4.57;;
72422;SDS011;60413;55.658;37.498;2022-09-21T09:24:49;10.63;;;4.55;;
72422;SDS011;60413;55.658;37.498;2022-09-21T09:27:40;11.68;;;4.45;;
72422;SDS011;60413;55.658;37.498;2022-09-21T09:30:39;12.05;;;6.53;;
72422;SDS011;60413;55.658;37.498;2022-09-21T09:36:24;5.53;;;2.95;;
72422;SDS011;60413;55.658;37.498;2022-09-21T09:39:12;5.93;;;2.60;;
72422;SDS011;60413;55.658;37.498;2022-09-21T09:50:53;6.68;;;3.75;;
72422;SDS011;60413;55.658;37.498;2022-09-21T09:53:38;9.75;;;3.85;;
72422;SDS011;60413;55.658;37.498;2022-09-21T09:56:17;7.55;;;4.03;;
72422;SDS011;60413;55.658;37.498;2022-09-21T09:58:52;10.20;;;3.53;;
72422;SDS011;60413;55.658;37.498;2022-09-21T10:04:08;12.02;;;3.60;;
72422;SDS011;60413;55.658;37.498;2022-09-21T10:06:38;7.47;;;3.58;;
72422;SDS011;60413;55.658;37.498;2022-09-21T10:09:19;5.22;;;3.13;;
72422;SDS011;60413;55.658;37.498;2022-09-21T10:12:18;6.25;;;2.50;;
72422;SDS011;60413;55.658;37.498;2022-09-21T10:14:56;4.90;;;2.85;;
72422;SDS011;60413;55.658;37.498;2022-09-21T10:17:31;7.82;;;3.22;;
72422;SDS011;60413;55.658;37.498;2022-09-21T10:24:40;5.88;;;2.70;;
72422;SDS011;60413;55.658;37.498;2022-09-21T10:34:40;4.65;;;2.75;;
72422;SDS011;60413;55.658;37.498;2022-09-21T10:37:28;6.90;;;2.67;;
72422;SDS011;60413;55.658;37.498;2022-09-21T10:40:03;9.20;;;4.28;;
72422;SDS011;60413;55.658;37.498;2022-09-21T10:42:36;6.40;;;3.30;;
72422;SDS011;60413;55.658;37.498;2022-09-21T10:45:22;6.32;;;2.85;;
72422;SDS011;60413;55.658;37.498;2022-09-21T10:48:05;6.22;;;3.20;;
72422;SDS011;60413;55.658;37.498;2022-09-21T10:50:40;4.88;;;3.08;;
72422;SDS011;60413;55.658;37.498;2022-09-21T10:53:26;10.55;;;3.65;;
72422;SDS011;60413;55.658;37.498;2022-09-21T10:58:30;5.78;;;2.10;;
72422;SDS011;60413;55.658;37.498;2022-09-21T11:01:20;5.60;;;3.13;;
72422;SDS011;60413;55.658;37.498;2022-09-21T11:06:56;8.13;;;3.17;;
72422;SDS011;60413;55.658;37.498;2022-09-21T11:09:52;6.57;;;3.17;;
72422;SDS011;60413;55.658;37.498;2022-09-21T11:18:07;10.25;;;3.17;;
72422;SDS011;60413;55.658;37.498;2022-09-21T11:20:47;6.45;;;3.42;;
72422;SDS011;60413;55.658;37.498;2022-09-21T11:26:33;8.43;;;3.35;;
72422;SDS011;60413;55.658;37.498;2022-09-21T11:35:01;5.60;;;2.90;;
72422;SDS011;60413;55.658;37.498;2022-09-21T11:37:59;5.18;;;3.15;;
72422;SDS011;60413;55.658;37.498;2022-09-21T11:40:46;11.85;;;3.40;;
72422;SDS011;60413;55.658;37.498;2022-09-21T11:44:00;10.15;;;4.63;;
72422;SDS011;60413;55.658;37.498;2022-09-21T11:46:52;6.13;;;3.60;;
72422;SDS011;60413;55.658;37.498;2022-09-21T12:10:25;7.00;;;3.63;;
72422;SDS011;60413;55.658;37.498;2022-09-21T12:21:38;8.98;;;3.78;;
72422;SDS011;60413;55.658;37.498;2022-09-21T12:24:22;5.60;;;2.47;;
72422;SDS011;60413;55.658;37.498;2022-09-21T12:26:59;9.52;;;3.40;;
72422;SDS011;60413;55.658;37.498;2022-09-21T12:29:39;5.97;;;3.20;;
72422;SDS011;60413;55.658;37.498;2022-09-21T12:32:27;8.63;;;3.97;;
72422;SDS011;60413;55.658;37.498;2022-09-21T12:35:03;8.50;;;3.08;;
72422;SDS011;60413;55.658;37.498;2022-09-21T12:37:40;11.18;;;4.10;;
72422;SDS011;60413;55.658;37.498;2022-09-21T12:46:01;6.90;;;3.35;;
72422;SDS011;60413;55.658;37.498;2022-09-21T12:48:31;3.95;;;2.08;;
72422;SDS011;60413;55.658;37.498;2022-09-21T12:53:41;5.90;;;2.33;;
72422;SDS011;60413;55.658;37.498;2022-09-21T13:02:20;5.20;;;2.33;;
72422;SDS011;60413;55.658;37.498;2022-09-21T13:07:56;6.82;;;3.13;;
72422;SDS011;60413;55.658;37.498;2022-09-21T13:10:46;4.55;;;2.45;;
72422;SDS011;60413;55.658;37.498;2022-09-21T13:15:56;9.38;;;2.42;;
72422;SDS011;60413;55.658;37.498;2022-09-21T13:18:28;5.97;;;2.67;;
72422;SDS011;60413;55.658;37.498;2022-09-21T13:20:56;10.93;;;2.88;;
72422;SDS011;60413;55.658;37.498;2022-09-21T13:23:34;3.75;;;2.08;;
72422;SDS011;60413;55.658;37.498;2022-09-21T13:26:07;7.78;;;2.25;;
72422;SDS011;60413;55.658;37.498;2022-09-21T13:39:44;6.43;;;2.63;;
72422;SDS011;60413;55.658;37.498;2022-09-21T13:45:05;4.38;;;2.30;;
72422;SDS011;60413;55.658;37.498;2022-09-21T13:47:52;4.53;;;2.30;;
72422;SDS011;60413;55.658;37.498;2022-09-21T13:50:37;3.90;;;1.52;;
72422;SDS011;60413;55.658;37.498;2022-09-21T13:53:20;4.55;;;1.85;;
72422;SDS011;60413;55.658;37.498;2022-09-21T13:55:53;4.60;;;2.20;;
72422;SDS011;60413;55.658;37.498;2022-09-21T13:58:32;4.78;;;2.30;;
72422;SDS011;60413;55.658;37.498;2022-09-21T14:01:14;6.30;;;2.60;;
72422;SDS011;60413;55.658;37.498;2022-09-21T14:03:55;5.32;;;1.92;;
72422;SDS011;60413;55.658;37.498;2022-09-21T14:06:33;3.38;;;1.70;;
72422;SDS011;60413;55.658;37.498;2022-09-21T14:09:25;8.52;;;2.00;;
72422;SDS011;60413;55.658;37.498;2022-09-21T14:12:03;5.72;;;2.17;;
72422;SDS011;60413;55.658;37.498;2022-09-21T14:14:37;7.30;;;2.15;;
72422;SDS011;60413;55.658;37.498;2022-09-21T14:20:02;3.38;;;1.77;;
72422;SDS011;60413;55.658;37.498;2022-09-21T14:22:33;4.82;;;1.73;;
72422;SDS011;60413;55.658;37.498;2022-09-21T14:25:24;6.03;;;1.85;;
72422;SDS011;60413;55.658;37.498;2022-09-21T14:27:53;4.20;;;1.77;;
72422;SDS011;60413;55.658;37.498;2022-09-21T14:30:28;3.13;;;1.45;;
72422;SDS011;60413;55.658;37.498;2022-09-21T14:36:00;4.90;;;1.67;;
72422;SDS011;60413;55.658;37.498;2022-09-21T14:38:44;3.80;;;1.60;;
72422;SDS011;60413;55.658;37.498;2022-09-21T14:41:21;7.43;;;1.92;;
72422;SDS011;60413;55.658;37.498;2022-09-21T14:43:50;4.95;;;1.50;;
72422;SDS011;60413;55.658;37.498;2022-09-21T14:49:28;6.25;;;2.35;;
72422;SDS011;60413;55.658;37.498;2022-09-21T14:57:54;5.97;;;1.55;;
72422;SDS011;60413;55.658;37.498;2022-09-21T15:00:43;3.60;;;1.90;;
72422;SDS011;60413;55.658;37.498;2022-09-21T15:06:21;2.25;;;1.40;;
72422;SDS011;60413;55.658;37.498;2022-09-21T15:12:55;5.20;;;1.88;;
72422;SDS011;60413;55.658;37.498;2022-09-21T15:15:46;7.38;;;2.20;;
72422;SDS011;60413;55.658;37.498;2022-09-21T15:18:44;5.55;;;1.48;;
72422;SDS011;60413;55.658;37.498;2022-09-21T15:21:24;4.28;;;1.92;;
72422;SDS011;60413;55.658;37.498;2022-09-21T15:24:18;3.53;;;2.20;;
72422;SDS011;60413;55.658;37.498;2022-09-21T15:27:08;9.15;;;2.08;;
72422;SDS011;60413;55.658;37.498;2022-09-21T15:29:48;5.70;;;2.47;;
72422;SDS011;60413;55.658;37.498;2022-09-21T15:32:39;5.90;;;2.22;;
72422;SDS011;60413;55.658;37.498;2022-09-21T15:35:39;6.72;;;2.10;;
72422;SDS011;60413;55.658;37.498;2022-09-21T15:38:28;4.13;;;2.20;;
72422;SDS011;60413;55.658;37.498;2022-09-21T15:40:57;7.82;;;2.08;;
72422;SDS011;60413;55.658;37.498;2022-09-21T15:43:39;4.32;;;2.13;;
72422;SDS011;60413;55.658;37.498;2022-09-21T15:49:16;9.43;;;3.25;;
72422;SDS011;60413;55.658;37.498;2022-09-21T15:57:58;4.80;;;2.53;;
72422;SDS011;60413;55.658;37.498;2022-09-21T16:01:08;6.63;;;2.50;;
72422;SDS011;60413;55.658;37.498;2022-09-21T16:03:48;5.70;;;2.80;;
72422;SDS011;60413;55.658;37.498;2022-09-21T16:06:36;6.30;;;3.00;;
72422;SDS011;60413;55.658;37.498;2022-09-21T16:09:26;5.25;;;2.90;;
72422;SDS011;60413;55.658;37.498;2022-09-21T16:12:33;10.85;;;3.58;;
72422;SDS011;60413;55.658;37.498;2022-09-21T16:24:25;7.63;;;3.53;;
72422;SDS011;60413;55.658;37.498;2022-09-21T16:26:56;13.50;;;3.70;;
72422;SDS011;60413;55.658;37.498;2022-09-21T16:29:27;7.70;;;3.60;;
72422;SDS011;60413;55.658;37.498;2022-09-21T16:35:22;10.13;;;3.63;;
72422;SDS011;60413;55.658;37.498;2022-09-21T16:37:58;7.55;;;3.50;;
72422;SDS011;60413;55.658;37.498;2022-09-21T16:40:54;7.78;;;3.58;;
72422;SDS011;60413;55.658;37.498;2022-09-21T16:44:04;6.47;;;3.25;;
72422;SDS011;60413;55.658;37.498;2022-09-21T16:47:04;8.90;;;3.25;;
72422;SDS011;60413;55.658;37.498;2022-09-21T16:49:56;10.93;;;3.75;;
72422;SDS011;60413;55.658;37.498;2022-09-21T16:52:46;6.63;;;3.65;;
72422;SDS011;60413;55.658;37.498;2022-09-21T16:55:19;8.70;;;3.30;;
72422;SDS011;60413;55.658;37.498;2022-09-21T16:58:11;8.10;;;3.08;;
72422;SDS011;60413;55.658;37.498;2022-09-21T17:00:45;7.70;;;3.28;;
72422;SDS011;60413;55.658;37.498;2022-09-21T17:03:18;4.35;;;2.28;;
72422;SDS011;60413;55.658;37.498;2022-09-21T17:05:47;6.10;;;2.60;;
72422;SDS011;60413;55.658;37.498;2022-09-21T17:08:13;4.93;;;2.60;;
72422;SDS011;60413;55.658;37.498;2022-09-21T17:10:48;7.05;;;3.22;;
72422;SDS011;60413;55.658;37.498;2022-09-21T17:13:18;4.85;;;2.15;;
72422;SDS011;60413;55.658;37.498;2022-09-21T17:15:45;7.97;;;3.97;;
72422;SDS011;60413;55.658;37.498;2022-09-21T17:18:13;5.60;;;3.05;;
72422;SDS011;60413;55.658;37.498;2022-09-21T17:20:51;7.97;;;3.60;;
72422;SDS011;60413;55.658;37.498;2022-09-21T17:25:52;6.75;;;3.63;;
72422;SDS011;60413;55.658;37.498;2022-09-21T17:28:31;6.72;;;3.55;;
72422;SDS011;60413;55.658;37.498;2022-09-21T17:31:19;7.97;;;4.35;;
72422;SDS011;60413;55.658;37.498;2022-09-21T17:33:53;7.00;;;3.72;;
72422;SDS011;60413;55.658;37.498;2022-09-21T17:36:22;7.97;;;4.32;;
72422;SDS011;60413;55.658;37.498;2022-09-21T17:38:48;8.77;;;4.43;;
72422;SDS011;60413;55.658;37.498;2022-09-21T17:41:30;3.47;;;1.92;;
72422;SDS011;60413;55.658;37.498;2022-09-21T17:44:14;6.35;;;3.63;;
72422;SDS011;60413;55.658;37.498;2022-09-21T17:46:52;9.15;;;4.35;;
72422;SDS011;60413;55.658;37.498;2022-09-21T17:49:43;7.68;;;4.32;;
72422;SDS011;60413;55.658;37.498;2022-09-21T17:52:17;7.97;;;3.30;;
72422;SDS011;60413;55.658;37.498;2022-09-21T17:55:06;5.65;;;2.30;;
72422;SDS011;60413;55.658;37.498;2022-09-21T18:04:05;4.40;;;2.33;;
72422;SDS011;60413;55.658;37.498;2022-09-21T18:06:40;53.30;;;17.40;;
72422;SDS011;60413;55.658;37.498;2022-09-21T18:09:14;18.97;;;6.20;;
72422;SDS011;60413;55.658;37.498;2022-09-21T18:26:53;3.83;;;1.77;;
72422;SDS011;60413;55.658;37.498;2022-09-21T18:30:06;2.85;;;1.85;;
72422;SDS011;60413;55.658;37.498;2022-09-21T18:33:11;4.07;;;1.80;;
72422;SDS011;60413;55.658;37.498;2022-09-21T18:36:48;5.20;;;2.45;;
72422;SDS011;60413;55.658;37.498;2022-09-21T18:55:25;6.93;;;3.33;;
72422;SDS011;60413;55.658;37.498;2022-09-21T18:58:13;6.85;;;3.45;;
72422;SDS011;60413;55.658;37.498;2022-09-21T19:01:01;9.00;;;3.63;;
72422;SDS011;60413;55.658;37.498;2022-09-21T19:03:40;6.38;;;2.78;;
72422;SDS011;60413;55.658;37.498;2022-09-21T19:16:11;7.22;;;3.67;;
72422;SDS011;60413;55.658;37.498;2022-09-21T19:38:11;5.63;;;3.00;;
72422;SDS011;60413;55.658;37.498;2022-09-21T19:45:41;8.02;;;3.60;;
72422;SDS011;60413;55.658;37.498;2022-09-21T19:48:15;10.57;;;4.07;;
72422;SDS011;60413;55.658;37.498;2022-09-21T19:50:58;7.47;;;3.92;;
72422;SDS011;60413;55.658;37.498;2022-09-21T19:54:10;9.95;;;4.22;;
72422;SDS011;60413;55.658;37.498;2022-09-21T19:57:24;7.93;;;3.88;;
72422;SDS011;60413;55.658;37.498;2022-09-21T20:00:15;6.45;;;3.67;;
72422;SDS011;60413;55.658;37.498;2022-09-21T20:03:32;8.57;;;4.03;;
72422;SDS011;60413;55.658;37.498;2022-09-21T20:07:18;9.40;;;4.38;;
72422;SDS011;60413;55.658;37.498;2022-09-21T20:09:38;7.63;;;4.15;;
72422;SDS011;60413;55.658;37.498;2022-09-21T20:12:21;8.25;;;4.93;;
72422;SDS011;60413;55.658;37.498;2022-09-21T20:15:24;11.10;;;5.20;;
72422;SDS011;60413;55.658;37.498;2022-09-21T20:21:19;9.32;;;4.55;;
72422;SDS011;60413;55.658;37.498;2022-09-21T20:28:13;7.20;;;3.63;;
72422;SDS011;60413;55.658;37.498;2022-09-21T20:30:42;8.88;;;4.05;;
72422;SDS011;60413;55.658;37.498;2022-09-21T20:33:21;16.30;;;4.82;;
72422;SDS011;60413;55.658;37.498;2022-09-21T20:36:32;8.95;;;4.30;;
72422;SDS011;60413;55.658;37.498;2022-09-21T20:39:00;12.27;;;4.10;;
72422;SDS011;60413;55.658;37.498;2022-09-21T20:41:34;12.70;;;6.20;;
72422;SDS011;60413;55.658;37.498;2022-09-21T20:44:11;11.48;;;5.20;;
72422;SDS011;60413;55.658;37.498;2022-09-21T20:47:07;6.82;;;3.28;;
72422;SDS011;60413;55.658;37.498;2022-09-21T20:49:49;10.88;;;4.78;;
72422;SDS011;60413;55.658;37.498;2022-09-21T20:52:32;6.75;;;3.72;;
72422;SDS011;60413;55.658;37.498;2022-09-21T20:55:12;7.10;;;3.60;;
72422;SDS011;60413;55.658;37.498;2022-09-21T20:57:53;7.07;;;2.80;;